Capitol Logistics 264


KCLT
Charlotte/Douglas International Airport
Charlotte, North Carolina, US
KMIA
Miami International Airport
Miami, Florida, US

Route Details

Aircraft Information
Primary: Boeing 767-300BDSF
Backup: Not Available
Route Data
Distance: 567nm
Sched. Duration: 1h 56m
Avg. Duration: 1h 44m (-12m)
Times Flown: 4
Recm'd Route: ICONS4 NOOKS WURFL Q83 JEVED Q97 KENLL OMN HILEY7
Planned Altitude: 36,000ft
Origin Wx: KCLT 270852Z 31016G24KT 10SM CLR 04/M06 A2989 RMK AO2 SLP121 T00391056 53017
Dest. Wx: KMIA 270853Z 29006KT 10SM FEW014 BKN075 OVC100 20/17 A3000 RMK AO2 SLP157 T02000167 53005 $
Notes:

Financial History
Total Freight: 288,681lbs
Average Load: 72,170lbs/flt
Fuel Used: 69,163lbs
Avg. Fuel Used: 17,291lbs/flt
Fuel Expense: $58,097
Avg. Fuel Expense: $14,524
Avg. Fuel Cost: $0.84/lbs
Total Gross Income: $378,433
Pilot Pay: $846
Total Expenses: $41,079
Total Revenue: $277,925
Average Revenue: $94,608.14